Ramón Villeda Morales International Airport
MHLM : now visible

Airfield :











YOU CAN JOIN US ON...

 
LOGIN :

Register | Disclaimer

   EN    FR    IT 

 









Legend :    VFR   Marginal VFR   IFR   Intensive IFR   Very Intensive IFR
Visi :
Ceiling :
>= 8 km
>= 3000ft
5 to 8 km
1000 to 3000 ft
1500m to 5 km
500 to 1000 ft
800 to 1500m
200 to 500 ft
< 800m
< 200 ft
Symbols :   Thunderstorms  Fog  Heavy snow  Heavy precipitations  Wind > 20 kt







- Airport Elevation : 91 ft
- IATA code : SAP


MHLM - Ramón Villeda Morales International

CURRENT METAR :
  • 180200Z 36008KT 9999 FEW026 BKN250 29/24 Q1012 A2989 NOSIG

EXPIRED METARs :
  • 180100Z 02006KT 9999 FEW028 BKN250 29/24 Q1012 A2989 NOSIG
  • 180000Z 02010KT 9999 FEW028 BKN250 30/24 Q1011 A2986 NOSIG

TAF TAF MHLM
Valid from the 18 at 00:00 until the 19 at 00:00 UTC


172225Z 1800/1824 07006KT 8000 VCSH FEW026CB SCT028TCU TX34/1821Z TN24/1812Z
BECMG 1803/1805 9999 NSW SCT026TCU SCT080
TEMPO 1808/1812 00000KT 7000 TSVCSH FEW026CB SCT028TCU
BECMG 1812/1814 36006KT 9999 NSW SCT028 SCT080
BECMG 1820/1822 SCT030TCU
No reported NOTAMs for that airfield.



MET'MAP, your aeronautical weather chart ! - Copyright ORBIFLY December 2007 - Disclaimer

ORBIFLY MET'MAP TEAM :

Programming & Development : Alexandra Zaïnal
Concept & Development : Baudouin d'Aumeries
Co-Development & Prog : Marc-Olivier Méhu
Technical & hardware support : Manuel Goepfert

Contact : metmap@orbifly.com




SOURCES & CREDITS :

   NOAA       Earth
Advisory